Campeche Bay — P3ZF9 — position and weather

sailwx.info

Track history (hours):
 
Tides and Currents Weather Stations Pressure Air Temp Water Temp Dewpoint Dewpoint Depression Visibility Wind Speed Wind Dir Waves Ship Positions

Campeche Bay

Last reported at 2014-Jul-17 01:33 UTC. Time now 2014-Jul-31 01:27 UTC.
Position N 29°30' W 094°52'.
Warning: this ship's position is 13 days out of date.

Length 90 m; draft 4.3 m.

Type: Cargo ship. MMSI: 209641000.

Date/timePositionNaut miles runAvg speedWind from/ knotsBaromVisibWave heightAir tempDewpointWater temp
2014-Jul-17 01:33N 29°30' W 094°52'9 9.2
2014-Jul-17 00:33N 29°38' W 094°58'4 3.6
2014-Jul-16 23:31N 29°41' W 094°60'0 0.0
2014-Jul-16 22:31N 29°41' W 094°60'0 0.0
2014-Jul-16 21:31N 29°41' W 094°60'0 0.0
2014-Jul-16 20:31N 29°41' W 094°60'0 0.0
2014-Jul-16 19:31N 29°41' W 094°60'0 0.0
2014-Jul-16 18:31N 29°41' W 094°60'0 0.0
2014-Jul-16 17:28N 29°41' W 094°60'0 0.0
2014-Jul-16 16:31N 29°41' W 094°60'6 6.3
2014-Jul-16 15:33N 29°36' W 094°57'1110.5
2014-Jul-16 14:33N 29°27' W 094°50'  
2014-Jul-09 19:33N 29°29' W 094°52'9 9.2
2014-Jul-09 18:33N 29°37' W 094°57'5 4.5
2014-Jul-09 17:31N 29°41' W 094°60'0 0.0
2014-Jul-09 16:31N 29°41' W 094°60'0 0.0
2014-Jul-09 15:31N 29°41' W 094°60'0 0.0
2014-Jul-09 14:31N 29°41' W 094°60'0 0.0
2014-Jul-09 13:28N 29°41' W 094°60'0 0.0
2014-Jul-09 12:31N 29°41' W 094°60'0 0.0
2014-Jul-09 11:31N 29°41' W 094°60'0 0.0
2014-Jul-09 10:31N 29°41' W 094°60'0 0.2
2014-Jul-09 09:33N 29°41' W 094°60'7 7.3
2014-Jul-09 08:34N 29°35' W 094°56'1010.3
2014-Jul-09 07:33N 29°26' W 094°50'  
Track history (hours):
 
Tides and Currents Weather Stations Pressure Air Temp Water Temp Dewpoint Dewpoint Depression Visibility Wind Speed Wind Dir Waves Ship Positions

Campeche Bay

Last reported at 2014-Jul-17 01:33 UTC. Time now 2014-Jul-31 01:27 UTC.
Position N 29°30' W 094°52'.
Warning: this ship's position is 13 days out of date.

Length 90 m; draft 4.3 m.

Type: Cargo ship. MMSI: 209641000.

Date/timePositionNaut miles runAvg speedWind from/ knotsBaromVisibWave heightAir tempDewpointWater temp
2014-Jul-17 01:33N 29°30' W 094°52'9 9.2
2014-Jul-17 00:33N 29°38' W 094°58'4 3.6
2014-Jul-16 23:31N 29°41' W 094°60'0 0.0
2014-Jul-16 22:31N 29°41' W 094°60'0 0.0
2014-Jul-16 21:31N 29°41' W 094°60'0 0.0
2014-Jul-16 20:31N 29°41' W 094°60'0 0.0
2014-Jul-16 19:31N 29°41' W 094°60'0 0.0
2014-Jul-16 18:31N 29°41' W 094°60'0 0.0
2014-Jul-16 17:28N 29°41' W 094°60'0 0.0
2014-Jul-16 16:31N 29°41' W 094°60'6 6.3
2014-Jul-16 15:33N 29°36' W 094°57'1110.5
2014-Jul-16 14:33N 29°27' W 094°50'  
2014-Jul-09 19:33N 29°29' W 094°52'9 9.2
2014-Jul-09 18:33N 29°37' W 094°57'5 4.5
2014-Jul-09 17:31N 29°41' W 094°60'0 0.0
2014-Jul-09 16:31N 29°41' W 094°60'0 0.0
2014-Jul-09 15:31N 29°41' W 094°60'0 0.0
2014-Jul-09 14:31N 29°41' W 094°60'0 0.0
2014-Jul-09 13:28N 29°41' W 094°60'0 0.0
2014-Jul-09 12:31N 29°41' W 094°60'0 0.0
2014-Jul-09 11:31N 29°41' W 094°60'0 0.0
2014-Jul-09 10:31N 29°41' W 094°60'0 0.2
2014-Jul-09 09:33N 29°41' W 094°60'7 7.3
2014-Jul-09 08:34N 29°35' W 094°56'1010.3
2014-Jul-09 07:33N 29°26' W 094°50'  

Dump ship's entire track history